Time;durP1;ratioP1;P1;durP2;ratioP2;P2;SDS_P1;SDS_P2;PMS_P1;PMS_P2;Temp;Humidity;BMP_temperature;BMP_pressure;BME280_temperature;BME280_humidity;BME280_pressure;Samples;Min_cycle;Max_cycle;Signal;HPM_P1;HPM_P2
2022/05/16 00:00:15;;;;;;;8.43;4.85;;;17.00;29.20;;;;;;5030688;28;20891;-72
2022/05/16 00:02:41;;;;;;;11.18;5.38;;;17.00;28.80;;;;;;5033006;28;20411;-73
2022/05/16 00:05:08;;;;;;;14.25;5.00;;;17.10;28.80;;;;;;5030800;28;22396;-72
2022/05/16 00:07:34;;;;;;;10.93;5.07;;;17.10;28.70;;;;;;5030391;28;20484;-73
2022/05/16 00:10:00;;;;;;;8.52;4.85;;;17.20;27.90;;;;;;5032382;28;20442;-73
2022/05/16 00:12:26;;;;;;;8.82;4.70;;;17.20;28.00;;;;;;5031127;28;20466;-75
2022/05/16 00:14:51;;;;;;;11.55;5.00;;;17.10;28.20;;;;;;5031721;28;20883;-71
2022/05/16 00:17:17;;;;;;;8.10;4.50;;;17.30;27.60;;;;;;5031341;28;20395;-70
2022/05/16 00:19:43;;;;;;;10.70;4.50;;;17.20;27.50;;;;;;5029843;28;20463;-71
2022/05/16 00:22:09;;;;;;;10.20;5.00;;;17.30;27.00;;;;;;5031141;28;20453;-74
2022/05/16 00:24:39;;;;;;;8.68;4.25;;;17.30;27.20;;;;;;5030728;28;20395;-73
2022/05/16 00:27:04;;;;;;;11.83;5.10;;;17.30;27.40;;;;;;5031386;28;20945;-73
2022/05/16 00:29:30;;;;;;;10.17;4.80;;;17.30;27.20;;;;;;5029365;28;20399;-72
2022/05/16 00:31:57;;;;;;;13.70;4.90;;;17.30;27.10;;;;;;5030203;28;20406;-74
2022/05/16 00:34:23;;;;;;;10.15;5.10;;;17.30;27.30;;;;;;5030057;28;20481;-72
2022/05/16 00:36:48;;;;;;;10.02;5.47;;;17.10;27.70;;;;;;5030072;28;20391;-73
2022/05/16 00:39:16;;;;;;;14.45;4.95;;;17.10;28.30;;;;;;5024527;28;20405;-73
2022/05/16 00:41:43;;;;;;;10.02;4.90;;;17.20;27.70;;;;;;5034439;28;20721;-73
2022/05/16 00:44:09;;;;;;;9.18;4.60;;;17.10;28.10;;;;;;5034719;28;20430;-73
2022/05/16 00:46:35;;;;;;;13.77;5.15;;;17.00;28.10;;;;;;5035219;28;20402;-73
2022/05/16 00:49:02;;;;;;;9.00;4.65;;;17.00;28.50;;;;;;5031579;28;21017;-73
2022/05/16 00:51:33;;;;;;;8.87;4.57;;;17.00;28.50;;;;;;5033629;28;20413;-71
2022/05/16 00:54:19;;;;;;;8.38;5.20;;;17.00;28.60;;;;;;5034694;28;20398;-72
2022/05/16 00:56:46;;;;;;;10.23;4.93;;;17.00;28.60;;;;;;5032942;28;20406;-74
2022/05/16 00:59:12;;;;;;;11.57;4.80;;;17.10;28.20;;;;;;5031769;28;20418;-74
2022/05/16 01:07:09;;;;;;;8.43;4.60;;;17.20;27.90;;;;;;5041814;28;20409;-73
2022/05/16 01:09:34;;;;;;;11.20;5.00;;;17.30;27.50;;;;;;5032485;28;20403;-75
2022/05/16 01:12:00;;;;;;;11.48;4.70;;;17.30;27.80;;;;;;5032569;28;20407;-73
2022/05/16 01:14:51;;;;;;;13.02;4.82;;;17.30;27.80;;;;;;5034512;28;20478;-74
2022/05/16 01:17:17;;;;;;;9.33;4.60;;;17.30;27.90;;;;;;5034197;28;20399;-74
2022/05/16 01:19:43;;;;;;;11.47;5.10;;;17.30;28.20;;;;;;5028781;28;20411;-73
2022/05/16 01:22:22;;;;;;;9.70;5.57;;;17.20;28.50;;;;;;5032385;28;20407;-71
2022/05/16 01:24:47;;;;;;;8.95;4.13;;;17.20;28.50;;;;;;5033374;28;20453;-71
2022/05/16 01:27:13;;;;;;;11.82;4.90;;;17.30;28.00;;;;;;5031826;28;20407;-76
2022/05/16 01:29:38;;;;;;;13.95;5.70;;;17.30;28.00;;;;;;5035572;28;20460;-75
2022/05/16 01:32:04;;;;;;;12.63;4.93;;;17.30;27.90;;;;;;5036396;28;20406;-74
2022/05/16 01:34:30;;;;;;;11.40;5.07;;;17.20;27.90;;;;;;5033448;28;20923;-74
2022/05/16 01:36:56;;;;;;;10.77;5.40;;;17.30;27.70;;;;;;5029839;28;20457;-74
2022/05/16 01:39:22;;;;;;;9.97;4.87;;;17.30;28.10;;;;;;5034223;28;20407;-72
2022/05/16 01:41:47;;;;;;;13.00;5.07;;;17.30;28.30;;;;;;5041554;28;20393;-73
2022/05/16 01:44:13;;;;;;;11.82;5.65;;;17.30;28.00;;;;;;5030081;28;20418;-75
2022/05/16 01:46:40;;;;;;;8.65;5.07;;;17.30;28.90;;;;;;5036619;28;20397;-72
2022/05/16 01:49:07;;;;;;;12.30;5.03;;;17.30;28.70;;;;;;5030635;28;20502;-75
2022/05/16 01:51:33;;;;;;;7.43;4.50;;;17.20;28.50;;;;;;5031485;28;20633;-74
2022/05/16 01:54:01;;;;;;;7.97;4.70;;;17.20;28.90;;;;;;5031985;28;20494;-74
2022/05/16 01:56:26;;;;;;;11.68;5.28;;;17.20;28.90;;;;;;5031841;28;20406;-73
2022/05/16 01:58:52;;;;;;;16.00;5.13;;;17.20;28.90;;;;;;5030779;28;20433;-74
2022/05/16 02:01:18;;;;;;;12.75;5.50;;;17.20;29.10;;;;;;5031055;28;20438;-73
2022/05/16 02:03:46;;;;;;;13.87;5.87;;;17.10;29.50;;;;;;5044743;23;20967;-78
2022/05/16 02:06:13;;;;;;;15.32;5.18;;;17.10;29.70;;;;;;5034557;28;20612;-79
2022/05/16 02:08:38;;;;;;;13.07;5.45;;;17.10;30.00;;;;;;5035394;28;20526;-78
2022/05/16 02:11:06;;;;;;;10.30;5.22;;;17.00;30.60;;;;;;5033329;28;20919;-78
2022/05/16 02:13:36;;;;;;;15.70;5.53;;;17.00;30.80;;;;;;5030535;28;20407;-79
2022/05/16 02:16:02;;;;;;;11.05;4.82;;;17.10;31.00;;;;;;5034853;28;20395;-79
2022/05/16 02:18:29;;;;;;;17.63;5.45;;;17.10;30.40;;;;;;5044852;28;20395;-78
2022/05/16 02:24:38;;;;;;;13.52;5.28;;;17.20;30.70;;;;;;5042310;28;20787;-78
2022/05/16 02:26:24;;;;;;;10.85;5.40;;;17.10;30.80;;;;;;5032377;28;20398;-77
2022/05/16 02:28:50;;;;;;;14.35;5.50;;;17.10;30.80;;;;;;5033912;28;20755;-80
2022/05/16 02:31:15;;;;;;;13.07;6.10;;;17.10;30.90;;;;;;5030093;28;20423;-78
2022/05/16 02:33:41;;;;;;;12.63;5.43;;;17.10;31.10;;;;;;5034592;28;20449;-77
2022/05/16 02:36:06;;;;;;;14.65;5.90;;;17.00;30.90;;;;;;5033332;28;20402;-78
2022/05/16 02:38:32;;;;;;;10.40;5.20;;;17.00;31.40;;;;;;5034351;28;20431;-78
2022/05/16 02:40:58;;;;;;;11.73;5.53;;;17.00;31.50;;;;;;5033022;28;20438;-78
2022/05/16 02:43:23;;;;;;;10.52;5.43;;;16.90;31.90;;;;;;5039273;28;20438;-78
2022/05/16 02:45:49;;;;;;;8.63;5.10;;;16.90;32.30;;;;;;5043153;28;20461;-77
2022/05/16 02:48:14;;;;;;;15.77;5.73;;;16.90;32.30;;;;;;5030880;28;20482;-77
2022/05/16 02:50:40;;;;;;;14.80;5.43;;;16.80;32.80;;;;;;5032500;28;20395;-77
2022/05/16 02:53:07;;;;;;;13.07;5.50;;;16.80;32.60;;;;;;5032678;28;20399;-78
2022/05/16 02:55:33;;;;;;;7.63;5.10;;;16.80;33.30;;;;;;5031184;28;20545;-78
2022/05/16 02:57:59;;;;;;;13.48;5.45;;;16.70;33.30;;;;;;5028268;28;20857;-77
2022/05/16 03:00:25;;;;;;;12.27;6.00;;;16.70;33.90;;;;;;5030707;28;20445;-77
2022/05/16 03:02:50;;;;;;;10.07;5.40;;;16.60;33.80;;;;;;5034645;28;20422;-77
2022/05/16 03:05:16;;;;;;;12.40;5.70;;;16.60;33.80;;;;;;5033873;28;20416;-77
2022/05/16 03:07:43;;;;;;;9.20;5.10;;;16.60;34.00;;;;;;5031755;28;20415;-77
2022/05/16 03:10:11;;;;;;;8.15;5.35;;;16.60;33.80;;;;;;5034016;28;20755;-77
2022/05/16 03:12:37;;;;;;;15.75;6.50;;;16.60;33.90;;;;;;5032095;28;20477;-77
2022/05/16 03:15:03;;;;;;;8.53;5.40;;;16.60;34.10;;;;;;5030483;28;20434;-77
2022/05/16 03:17:28;;;;;;;13.83;6.40;;;16.60;34.20;;;;;;5031215;28;20399;-77
2022/05/16 03:19:54;;;;;;;14.57;5.70;;;16.50;34.90;;;;;;5032655;28;20416;-77
2022/05/16 03:22:20;;;;;;;13.15;5.72;;;16.50;35.40;;;;;;5030870;28;20469;-77
2022/05/16 03:24:45;;;;;;;10.50;5.77;;;16.50;34.80;;;;;;5037253;28;20414;-77
2022/05/16 03:27:11;;;;;;;14.70;6.10;;;16.50;35.00;;;;;;5040484;28;20608;-77
2022/05/16 03:29:37;;;;;;;11.93;5.80;;;16.50;35.30;;;;;;5040124;28;20763;-77
2022/05/16 03:32:03;;;;;;;19.10;6.13;;;16.50;35.80;;;;;;5037789;28;20391;-77
2022/05/16 03:34:28;;;;;;;12.67;6.00;;;16.40;35.40;;;;;;5040069;28;20394;-77
2022/05/16 03:36:54;;;;;;;12.57;6.00;;;16.40;36.10;;;;;;5039315;28;20461;-78
2022/05/16 03:42:07;;;;;;;9.37;5.70;;;16.30;37.10;;;;;;5050301;28;20411;-77
2022/05/16 03:44:33;;;;;;;9.52;5.20;;;16.40;36.60;;;;;;5039545;28;20402;-77
2022/05/16 03:46:59;;;;;;;13.85;5.60;;;16.40;35.80;;;;;;5038418;28;20403;-77
2022/05/16 03:49:24;;;;;;;8.40;5.50;;;16.40;36.20;;;;;;5032665;28;20391;-77
2022/05/16 03:51:50;;;;;;;16.23;6.60;;;16.40;36.30;;;;;;5034544;28;20402;-77
2022/05/16 03:54:17;;;;;;;14.43;5.60;;;16.30;36.70;;;;;;5035111;28;20402;-77
2022/05/16 03:56:43;;;;;;;12.20;5.40;;;16.30;36.10;;;;;;5035212;28;20414;-77
2022/05/16 03:59:11;;;;;;;17.85;5.50;;;16.40;35.50;;;;;;5034506;28;20847;-77
2022/05/16 04:01:36;;;;;;;10.75;5.53;;;16.50;35.70;;;;;;5035577;28;20428;-77
2022/05/16 04:04:02;;;;;;;11.53;5.90;;;16.50;36.00;;;;;;5040306;28;20411;-77
2022/05/16 04:06:27;;;;;;;11.20;5.47;;;16.50;35.50;;;;;;5038933;28;20403;-77
2022/05/16 04:08:54;;;;;;;13.68;6.10;;;16.50;35.50;;;;;;5040888;28;20399;-78
2022/05/16 04:11:20;;;;;;;18.08;6.68;;;16.50;35.60;;;;;;5043169;28;20390;-78
2022/05/16 04:13:47;;;;;;;15.93;6.10;;;16.60;34.70;;;;;;5041915;28;20403;-78
2022/05/16 04:16:13;;;;;;;13.00;5.80;;;16.60;34.10;;;;;;5041522;28;20466;-77
2022/05/16 04:18:40;;;;;;;10.93;5.30;;;16.70;34.20;;;;;;5034717;28;20442;-78
2022/05/16 04:21:05;;;;;;;14.60;6.10;;;16.70;33.70;;;;;;5035987;28;20394;-77
2022/05/16 04:23:32;;;;;;;9.93;5.22;;;16.70;33.70;;;;;;5034785;28;20418;-78
2022/05/16 04:25:58;;;;;;;11.93;5.73;;;16.70;33.50;;;;;;5036448;28;20803;-77
2022/05/16 04:28:24;;;;;;;14.68;5.68;;;16.70;32.90;;;;;;5035309;28;20413;-77
2022/05/16 04:30:49;;;;;;;12.30;5.20;;;16.80;32.70;;;;;;5036327;28;20391;-76
2022/05/16 04:33:18;;;;;;;12.70;5.80;;;16.80;32.10;;;;;;5032979;28;20413;-76
2022/05/16 04:35:43;;;;;;;11.80;5.68;;;16.80;32.20;;;;;;5035663;28;20407;-78
2022/05/16 04:38:09;;;;;;;8.65;5.10;;;16.90;32.00;;;;;;5035223;28;20399;-78
2022/05/16 04:42:40;;;;;;;13.30;5.40;;;16.90;31.90;;;;;;5035074;28;20951;-77
2022/05/16 04:43:20;;;;;;;9.35;5.13;;;16.90;31.10;;;;;;5032696;28;20513;-77
2022/05/16 04:45:45;;;;;;;15.88;5.90;;;17.00;30.70;;;;;;5033895;28;21021;-77
2022/05/16 04:48:11;;;;;;;13.23;4.93;;;17.00;30.50;;;;;;5031000;28;20400;-77
2022/05/16 04:50:36;;;;;;;13.63;5.50;;;17.20;29.70;;;;;;5036289;28;20847;-78
2022/05/16 04:53:02;;;;;;;11.07;5.03;;;17.30;29.10;;;;;;5038121;28;20981;-78
2022/05/16 04:55:29;;;;;;;9.25;5.18;;;17.40;29.40;;;;;;5033790;28;20406;-79
2022/05/16 04:57:57;;;;;;;11.60;5.00;;;17.40;28.50;;;;;;5036876;28;20422;-78
2022/05/16 05:00:23;;;;;;;13.73;5.00;;;17.50;28.00;;;;;;5034754;28;20423;-77
2022/05/16 05:02:49;;;;;;;8.80;4.75;;;17.70;27.20;;;;;;5035679;28;20410;-77
2022/05/16 05:05:16;;;;;;;13.98;5.40;;;17.70;27.20;;;;;;5035711;28;20459;-78
2022/05/16 05:07:43;;;;;;;13.40;5.20;;;17.80;26.90;;;;;;5033464;28;20399;-79
2022/05/16 05:16:17;;;;;;;12.65;4.80;;;18.20;25.00;;;;;;4999162;28;20961;-77
2022/05/16 05:18:43;;;;;;;14.15;4.95;;;18.60;24.60;;;;;;4999550;28;20443;-77
2022/05/16 05:21:10;;;;;;;10.43;4.68;;;18.70;24.10;;;;;;5028916;28;20520;-78
2022/05/16 05:23:38;;;;;;;12.25;4.93;;;18.80;23.10;;;;;;5034561;28;20410;-78
2022/05/16 05:26:04;;;;;;;14.35;5.03;;;19.00;23.40;;;;;;5037078;28;20760;-78
2022/05/16 05:28:30;;;;;;;10.13;4.20;;;19.20;22.20;;;;;;5033197;28;20407;-78
2022/05/16 05:30:57;;;;;;;13.90;5.10;;;19.20;21.70;;;;;;5036436;28;20405;-77
2022/05/16 05:33:23;;;;;;;16.15;5.05;;;19.20;22.10;;;;;;5035696;28;20398;-77
2022/05/16 05:35:48;;;;;;;15.00;5.20;;;19.20;22.00;;;;;;5036800;28;20490;-77
2022/05/16 05:38:14;;;;;;;13.63;4.87;;;19.20;21.80;;;;;;5032365;28;20413;-77
2022/05/16 05:40:40;;;;;;;15.35;4.78;;;19.30;21.70;;;;;;5037112;28;20774;-77
2022/05/16 05:43:07;;;;;;;11.63;5.15;;;19.40;21.80;;;;;;5036314;28;20407;-76
2022/05/16 05:45:34;;;;;;;11.40;4.90;;;19.40;22.10;;;;;;5033892;28;20414;-77
2022/05/16 05:48:01;;;;;;;15.57;5.88;;;19.50;22.20;;;;;;5034731;28;20401;-77
2022/05/16 05:50:27;;;;;;;12.48;5.60;;;19.60;21.90;;;;;;5036643;28;20414;-78
2022/05/16 05:52:52;;;;;;;11.05;5.40;;;19.80;21.10;;;;;;5038070;28;20396;-77
2022/05/16 05:55:18;;;;;;;11.98;4.90;;;19.80;21.00;;;;;;5035378;28;20395;-77
2022/05/16 05:57:44;;;;;;;17.20;5.00;;;19.90;21.10;;;;;;5027519;28;20391;-78
2022/05/16 06:00:11;;;;;;;13.20;5.70;;;20.00;20.90;;;;;;5030622;28;20411;-77
2022/05/16 06:02:40;;;;;;;14.50;4.68;;;20.10;20.80;;;;;;5035007;28;20418;-78
2022/05/16 06:05:10;;;;;;;16.13;5.20;;;20.00;20.80;;;;;;5038386;28;20417;-77
2022/05/16 06:07:36;;;;;;;12.82;5.15;;;20.00;20.90;;;;;;5034658;28;20395;-77
2022/05/16 06:10:02;;;;;;;11.83;4.90;;;20.00;21.70;;;;;;5035120;28;20872;-78
2022/05/16 06:12:28;;;;;;;11.50;5.20;;;20.10;21.10;;;;;;5048210;28;20793;-78
2022/05/16 06:14:53;;;;;;;13.45;5.20;;;20.10;21.50;;;;;;5032742;28;20395;-77
2022/05/16 06:17:20;;;;;;;10.87;5.30;;;20.20;20.90;;;;;;5029999;28;20410;-77
2022/05/16 06:19:46;;;;;;;10.18;5.30;;;20.40;20.70;;;;;;5031898;28;20412;-76
2022/05/16 06:22:12;;;;;;;9.65;4.70;;;20.60;20.30;;;;;;5036105;28;20407;-78
2022/05/16 06:27:21;;;;;;;9.20;4.53;;;21.00;19.30;;;;;;5041944;28;20433;-77
2022/05/16 06:29:47;;;;;;;7.90;4.53;;;21.20;19.80;;;;;;5044014;28;20486;-77
2022/05/16 06:32:12;;;;;;;11.77;4.82;;;21.30;19.10;;;;;;5044621;28;20416;-78
2022/05/16 06:34:38;;;;;;;11.47;5.27;;;21.40;18.50;;;;;;5041367;28;20482;-77
2022/05/16 06:37:04;;;;;;;12.00;4.90;;;21.60;18.60;;;;;;5036893;28;20399;-77
2022/05/16 06:39:30;;;;;;;14.55;4.88;;;21.60;18.20;;;;;;5033047;28;20395;-77
2022/05/16 06:41:55;;;;;;;17.03;5.13;;;21.60;18.00;;;;;;5034987;28;20482;-78
2022/05/16 06:44:21;;;;;;;6.88;4.40;;;21.70;18.50;;;;;;5029630;28;20409;-78
2022/05/16 06:46:46;;;;;;;14.20;4.90;;;21.70;17.80;;;;;;5028258;28;20407;-78
2022/05/16 06:49:12;;;;;;;13.00;5.27;;;21.80;17.00;;;;;;5030215;28;20415;-78
2022/05/16 06:51:38;;;;;;;12.73;4.85;;;21.80;16.80;;;;;;5032231;28;20443;-77
2022/05/16 06:54:05;;;;;;;8.13;4.85;;;21.80;17.10;;;;;;5032164;28;20433;-76
2022/05/16 06:56:30;;;;;;;16.50;4.80;;;21.90;16.60;;;;;;5033615;28;20422;-77
2022/05/16 06:58:56;;;;;;;9.67;4.50;;;21.90;16.50;;;;;;5032460;28;20395;-77
2022/05/16 07:01:21;;;;;;;11.60;4.72;;;22.10;16.70;;;;;;5029755;28;20403;-77
2022/05/16 07:03:48;;;;;;;13.53;4.30;;;22.40;16.30;;;;;;5029069;28;20430;-77
2022/05/16 07:06:14;;;;;;;11.38;4.70;;;22.30;16.40;;;;;;5030575;28;20422;-76
2022/05/16 07:08:41;;;;;;;13.80;5.50;;;22.50;15.90;;;;;;5032653;28;20402;-77
2022/05/16 07:11:08;;;;;;;10.85;4.60;;;22.60;15.50;;;;;;5029031;28;20407;-77
2022/05/16 07:13:34;;;;;;;16.77;4.63;;;22.80;14.90;;;;;;5030382;28;20510;-77
2022/05/16 07:16:00;;;;;;;9.48;4.80;;;22.70;15.00;;;;;;5027528;28;20419;-77
2022/05/16 07:18:27;;;;;;;12.05;4.70;;;23.00;14.60;;;;;;5031835;28;20414;-79
2022/05/16 07:20:55;;;;;;;9.73;5.05;;;23.00;14.10;;;;;;5034829;28;20407;-78
2022/05/16 07:23:21;;;;;;;11.27;4.38;;;23.10;14.20;;;;;;5025512;28;20923;-78
2022/05/16 07:28:31;;;;;;;9.82;4.35;;;23.20;14.30;;;;;;5043422;28;20418;-76
2022/05/16 07:30:57;;;;;;;16.60;4.85;;;23.10;14.10;;;;;;5041395;28;20403;-75
2022/05/16 07:33:23;;;;;;;17.30;5.03;;;23.00;14.20;;;;;;5047163;28;20410;-77
2022/05/16 07:35:50;;;;;;;13.90;5.40;;;22.90;14.70;;;;;;5038397;28;20410;-78
2022/05/16 07:38:17;;;;;;;9.75;4.45;;;22.70;14.90;;;;;;5042528;28;20471;-77
2022/05/16 07:40:42;;;;;;;13.80;4.93;;;22.50;15.40;;;;;;5040133;28;20789;-77
2022/05/16 07:43:08;;;;;;;15.68;5.60;;;22.30;16.10;;;;;;5060913;28;20426;-77
2022/05/16 07:45:34;;;;;;;20.15;4.82;;;22.00;17.10;;;;;;5038909;28;20411;-78
2022/05/16 07:48:02;;;;;;;14.00;5.60;;;21.80;19.00;;;;;;5028579;28;20409;-79
2022/05/16 07:50:33;;;;;;;12.40;4.88;;;21.70;21.30;;;;;;5032008;28;20387;-77
2022/05/16 07:52:59;;;;;;;18.60;6.22;;;21.50;24.00;;;;;;5023626;28;20481;-79
2022/05/16 07:55:26;;;;;;;13.07;5.55;;;21.30;25.70;;;;;;5032642;28;20399;-80
2022/05/16 07:57:52;;;;;;;12.93;6.18;;;21.20;27.20;;;;;;5029364;28;20533;-79
2022/05/16 08:00:19;;;;;;;13.45;6.20;;;21.00;28.60;;;;;;5045917;28;20468;-78
2022/05/16 08:02:45;;;;;;;15.82;6.10;;;21.00;29.40;;;;;;5031534;28;20411;-79
2022/05/16 08:05:14;;;;;;;17.38;7.03;;;20.80;31.80;;;;;;5034633;28;20414;-79
2022/05/16 08:10:31;;;;;;;15.20;7.05;;;20.50;36.10;;;;;;5032472;28;20729;-78
2022/05/16 08:13:09;;;;;;;14.45;6.53;;;20.50;37.00;;;;;;5023408;28;20441;-78
2022/05/16 08:15:36;;;;;;;13.90;6.70;;;20.70;38.70;;;;;;5029581;28;20483;-78
2022/05/16 08:18:02;;;;;;;18.67;7.07;;;20.60;38.90;;;;;;5029960;28;20430;-77
2022/05/16 08:20:29;;;;;;;14.90;6.50;;;20.80;38.30;;;;;;5029141;28;20441;-78
2022/05/16 08:22:55;;;;;;;16.98;7.60;;;20.70;37.60;;;;;;5028280;28;20441;-79
2022/05/16 08:25:21;;;;;;;17.83;8.90;;;20.70;35.70;;;;;;5030092;28;20458;-79
2022/05/16 08:27:50;;;;;;;17.83;7.85;;;20.60;37.60;;;;;;5027899;28;20411;-75
2022/05/16 08:30:16;;;;;;;13.87;6.23;;;20.60;38.70;;;;;;5040204;28;20502;-77
2022/05/16 08:32:42;;;;;;;11.53;6.33;;;20.50;38.30;;;;;;5028261;28;20852;-80
2022/05/16 08:35:11;;;;;;;18.23;7.32;;;20.40;37.20;;;;;;5029580;28;20438;-76
2022/05/16 08:40:28;;;;;;;13.55;7.05;;;20.20;40.40;;;;;;5032085;28;20918;-76
2022/05/16 08:43:03;;;;;;;15.30;6.78;;;20.30;38.60;;;;;;5036580;28;20804;-77
2022/05/16 08:45:38;;;;;;;13.00;6.85;;;20.30;38.40;;;;;;5036838;28;20398;-77
2022/05/16 08:48:14;;;;;;;12.90;7.35;;;20.30;40.20;;;;;;5033101;28;20532;-78
2022/05/16 08:50:41;;;;;;;16.20;6.72;;;20.40;41.50;;;;;;5040000;28;20415;-77
2022/05/16 08:53:10;;;;;;;12.65;6.40;;;20.50;42.40;;;;;;5041026;28;20407;-77
2022/05/16 08:55:41;;;;;;;13.45;6.57;;;20.80;38.20;;;;;;5034529;28;20425;-76
2022/05/16 08:58:33;;;;;;;12.13;6.25;;;21.00;37.80;;;;;;5027938;28;20450;-75
2022/05/16 09:01:03;;;;;;;13.52;6.40;;;21.10;36.70;;;;;;5038198;28;20415;-76
2022/05/16 09:03:52;;;;;;;9.15;5.60;;;21.30;35.20;;;;;;5037679;28;20458;-76
2022/05/16 09:06:24;;;;;;;11.10;6.10;;;21.60;34.20;;;;;;5030127;28;20399;-76
2022/05/16 09:08:58;;;;;;;9.75;6.00;;;22.00;31.80;;;;;;5033436;28;20426;-76
2022/05/16 09:11:44;;;;;;;12.95;5.90;;;22.50;29.90;;;;;;5035434;28;20406;-76
2022/05/16 09:14:38;;;;;;;15.20;5.50;;;22.60;29.80;;;;;;5037689;28;20433;-77
2022/05/16 09:17:19;;;;;;;15.27;6.45;;;22.70;29.70;;;;;;5036688;28;20402;-77
2022/05/16 09:19:58;;;;;;;8.20;5.50;;;22.90;29.30;;;;;;5043264;28;20402;-77
2022/05/16 09:22:30;;;;;;;13.70;5.80;;;23.00;28.10;;;;;;5036714;28;20407;-77
2022/05/16 09:25:04;;;;;;;9.73;6.60;;;23.20;26.20;;;;;;5036188;28;20419;-77
2022/05/16 09:30:23;;;;;;;12.93;6.47;;;23.40;28.20;;;;;;5037726;28;20465;-76
2022/05/16 09:33:11;;;;;;;9.05;5.70;;;23.50;27.20;;;;;;5038753;28;20778;-76
2022/05/16 09:35:37;;;;;;;15.88;5.80;;;23.60;28.30;;;;;;5037373;28;20423;-75
2022/05/16 09:38:04;;;;;;;16.10;6.10;;;23.80;28.80;;;;;;5035906;28;20417;-76
2022/05/16 09:40:40;;;;;;;13.52;5.82;;;24.00;27.60;;;;;;5031831;28;20440;-76
2022/05/16 09:43:20;;;;;;;12.90;6.00;;;24.10;25.00;;;;;;5033340;28;20414;-76
2022/05/16 09:45:51;;;;;;;12.77;5.65;;;24.20;23.50;;;;;;5035839;28;20464;-75
2022/05/16 09:48:20;;;;;;;13.27;6.00;;;24.20;23.80;;;;;;5032417;28;20473;-75
2022/05/16 09:51:04;;;;;;;13.37;5.70;;;24.40;22.70;;;;;;5030091;28;20416;-76
2022/05/16 09:53:42;;;;;;;12.17;6.20;;;24.70;21.70;;;;;;5032062;28;20420;-75
2022/05/16 09:56:24;;;;;;;10.55;5.25;;;25.10;21.40;;;;;;5035326;28;20407;-75
2022/05/16 09:58:56;;;;;;;12.18;5.38;;;25.20;19.60;;;;;;5029988;28;20466;-76
2022/05/16 10:01:43;;;;;;;16.90;5.50;;;25.40;19.30;;;;;;5026511;28;20403;-76
2022/05/16 10:04:14;;;;;;;9.25;4.88;;;25.70;19.00;;;;;;5021525;28;20415;-75
2022/05/16 10:06:43;;;;;;;11.43;5.30;;;25.80;19.00;;;;;;5029805;28;21104;-75
2022/05/16 10:09:15;;;;;;;10.57;5.10;;;25.80;18.20;;;;;;5028388;28;20906;-75
2022/05/16 10:11:45;;;;;;;9.27;5.10;;;25.60;19.10;;;;;;5030344;28;20674;-76
2022/05/16 10:14:11;;;;;;;14.02;5.40;;;25.70;18.80;;;;;;5033384;28;20440;-76
2022/05/16 10:16:41;;;;;;;11.13;5.50;;;25.50;18.20;;;;;;5028153;28;20970;-75
2022/05/16 10:19:11;;;;;;;10.02;4.50;;;25.50;17.40;;;;;;5026560;28;20407;-75
2022/05/16 10:21:41;;;;;;;11.60;5.22;;;25.50;17.70;;;;;;5027519;28;20419;-73
2022/05/16 10:24:11;;;;;;;9.77;4.47;;;25.50;17.90;;;;;;5028994;28;20505;-76
2022/05/16 10:26:43;;;;;;;11.25;5.05;;;25.60;17.50;;;;;;5031151;28;20415;-76
2022/05/16 10:29:16;;;;;;;10.52;4.80;;;25.60;17.60;;;;;;5029088;28;20888;-76
2022/05/16 10:34:58;;;;;;;9.32;4.50;;;26.00;14.10;;;;;;5025896;28;20418;-77
2022/05/16 10:37:25;;;;;;;8.70;4.10;;;26.30;14.20;;;;;;5028083;28;20527;-77
2022/05/16 10:39:57;;;;;;;8.47;3.70;;;26.70;13.60;;;;;;5033798;28;20409;-77
2022/05/16 10:42:52;;;;;;;8.57;4.13;;;26.80;12.30;;;;;;5029333;28;20406;-76
2022/05/16 10:45:22;;;;;;;8.52;4.10;;;26.90;13.20;;;;;;5029389;28;20895;-76
2022/05/16 10:48:05;;;;;;;8.77;4.13;;;27.10;13.10;;;;;;5029235;28;20915;-77
2022/05/16 10:50:46;;;;;;;8.63;4.07;;;27.10;12.60;;;;;;5028670;28;20481;-76
2022/05/16 10:53:21;;;;;;;7.43;3.45;;;27.10;12.10;;;;;;5019541;28;20404;-75
2022/05/16 10:56:10;;;;;;;9.90;4.13;;;27.20;11.70;;;;;;5027783;28;20917;-77
2022/05/16 10:58:54;;;;;;;7.78;3.65;;;27.10;12.20;;;;;;5027890;28;20426;-77
2022/05/16 11:01:28;;;;;;;5.32;3.60;;;27.20;12.40;;;;;;5026849;28;20415;-76
2022/05/16 11:04:10;;;;;;;6.93;3.80;;;27.50;11.10;;;;;;5028843;28;20407;-75
2022/05/16 11:06:56;;;;;;;6.35;3.60;;;27.50;10.80;;;;;;5031955;28;20918;-77
2022/05/16 11:09:44;;;;;;;8.97;3.20;;;27.60;10.80;;;;;;5028647;28;20402;-76
2022/05/16 11:12:16;;;;;;;6.57;3.42;;;27.70;11.50;;;;;;5022480;28;20407;-76
2022/05/16 11:14:48;;;;;;;8.82;3.72;;;27.70;11.10;;;;;;5026902;28;20411;-77
2022/05/16 11:17:42;;;;;;;4.88;2.95;;;27.60;10.10;;;;;;5025768;28;20402;-76
2022/05/16 11:20:43;;;;;;;8.27;3.60;;;27.50;11.00;;;;;;5003418;28;20697;-77
2022/05/16 11:23:41;;;;;;;6.68;3.70;;;27.60;10.80;;;;;;5024648;28;20413;-77
2022/05/16 11:26:19;;;;;;;5.25;3.30;;;27.60;11.00;;;;;;5008052;28;20929;-77
2022/05/16 11:29:17;;;;;;;9.73;4.00;;;27.80;11.40;;;;;;5027897;28;20395;-76
2022/05/16 11:31:59;;;;;;;13.00;4.13;;;28.10;11.10;;;;;;5029578;28;20411;-76
2022/05/16 11:34:36;;;;;;;8.90;3.80;;;27.90;10.60;;;;;;5042891;28;20777;-77
2022/05/16 11:37:22;;;;;;;9.50;3.80;;;27.60;11.30;;;;;;5023208;28;20403;-77
2022/05/16 11:40:01;;;;;;;11.70;4.03;;;27.30;11.80;;;;;;5031026;28;20395;-76
2022/05/16 11:42:43;;;;;;;13.85;4.45;;;27.20;12.80;;;;;;5029920;28;20492;-77
2022/05/16 11:45:28;;;;;;;11.48;4.68;;;27.10;12.80;;;;;;5024164;28;20407;-77
2022/05/16 11:48:13;;;;;;;10.90;4.47;;;26.80;13.60;;;;;;5028930;28;20764;-77
2022/05/16 11:51:10;;;;;;;12.15;4.80;;;26.70;14.60;;;;;;5030880;28;20880;-77
2022/05/16 11:53:50;;;;;;;14.38;4.97;;;26.50;17.00;;;;;;5050558;28;20440;-78
2022/05/16 12:02:14;;;;;;;11.57;4.70;;;26.20;25.40;;;;;;5038766;28;20907;-79
2022/05/16 12:04:45;;;;;;;10.65;4.90;;;26.50;20.60;;;;;;5031162;28;20418;-76
2022/05/16 12:07:34;;;;;;;12.68;4.97;;;26.80;21.60;;;;;;5035130;28;20411;-76
2022/05/16 12:10:10;;;;;;;17.38;5.30;;;27.20;21.60;;;;;;5032042;28;20410;-77
2022/05/16 12:12:43;;;;;;;13.13;5.10;;;27.50;18.10;;;;;;5036325;28;20407;-78
2022/05/16 12:15:11;;;;;;;10.97;4.50;;;27.80;17.80;;;;;;5028956;28;20399;-77
2022/05/16 12:17:48;;;;;;;11.15;4.75;;;28.00;17.40;;;;;;5030217;28;20399;-77
2022/05/16 12:20:14;;;;;;;10.23;4.43;;;27.90;14.30;;;;;;5022084;28;20391;-77
2022/05/16 12:22:40;;;;;;;5.90;3.80;;;28.00;15.30;;;;;;5028852;28;20450;-76
2022/05/16 12:25:26;;;;;;;10.77;4.28;;;27.90;15.40;;;;;;5031601;28;20895;-76
2022/05/16 12:28:12;;;;;;;11.50;4.70;;;28.00;15.50;;;;;;5031170;28;20425;-76
2022/05/16 12:30:37;;;;;;;8.63;4.85;;;28.20;15.90;;;;;;5032801;28;20387;-76
2022/05/16 12:33:05;;;;;;;13.88;4.88;;;28.40;14.60;;;;;;5032231;28;20481;-76
2022/05/16 12:35:43;;;;;;;11.38;4.43;;;28.30;15.00;;;;;;5034190;28;20891;-77
2022/05/16 12:38:11;;;;;;;10.15;4.70;;;28.20;15.40;;;;;;5049105;28;20408;-77
2022/05/16 12:41:02;;;;;;;14.87;4.60;;;28.10;15.60;;;;;;5040802;28;20417;-77
2022/05/16 12:43:57;;;;;;;11.57;5.20;;;27.90;16.10;;;;;;5037969;28;20407;-78
2022/05/16 12:46:41;;;;;;;11.70;5.00;;;27.90;15.80;;;;;;5033949;28;20429;-77
2022/05/16 12:49:18;;;;;;;11.45;5.70;;;27.50;19.60;;;;;;5041315;28;20407;-77
2022/05/16 12:52:11;;;;;;;9.85;5.50;;;26.90;19.90;;;;;;5034458;28;20395;-79
2022/05/16 12:54:39;;;;;;;10.30;5.30;;;26.70;20.30;;;;;;5034880;28;20978;-76
2022/05/16 12:57:38;;;;;;;12.52;6.10;;;26.80;20.00;;;;;;5034356;28;20478;-76
2022/05/16 13:00:10;;;;;;;10.60;6.38;;;26.80;20.00;;;;;;5020464;28;20413;-79
2022/05/16 13:03:01;;;;;;;13.02;5.90;;;26.70;20.10;;;;;;5039654;28;20433;-76
2022/05/16 13:05:55;;;;;;;16.80;6.22;;;26.50;20.70;;;;;;5034758;28;20424;-77
2022/05/16 13:08:47;;;;;;;12.15;6.60;;;26.10;21.00;;;;;;5037981;28;20442;-77
2022/05/16 13:11:40;;;;;;;18.85;6.95;;;25.80;21.80;;;;;;5032819;28;20410;-76
2022/05/16 13:14:13;;;;;;;13.57;7.63;;;25.60;23.00;;;;;;5038040;28;20791;-77
2022/05/16 13:16:50;;;;;;;17.98;7.13;;;25.20;25.30;;;;;;5043040;28;20485;-78
2022/05/16 13:19:18;;;;;;;18.02;7.63;;;24.90;26.30;;;;;;5061027;28;20438;-76
2022/05/16 13:21:46;;;;;;;16.48;7.97;;;24.80;27.00;;;;;;5049236;28;20417;-76
2022/05/16 13:24:14;;;;;;;13.25;7.65;;;24.70;27.00;;;;;;5041186;28;20449;-77
2022/05/16 13:29:33;;;;;;;16.98;8.10;;;24.70;26.60;;;;;;5030495;28;20926;-76
2022/05/16 13:32:06;;;;;;;13.85;8.25;;;24.70;29.00;;;;;;5032738;28;20502;-77
2022/05/16 13:34:33;;;;;;;11.68;7.65;;;24.80;29.10;;;;;;5040034;28;20402;-77
2022/05/16 13:37:00;;;;;;;11.85;7.88;;;25.00;26.70;;;;;;5035135;28;20426;-76